sensor_id;sensor_type;location;lat;lon;timestamp;pressure;altitude;pressure_sealevel;temperature;humidity
5053;BME280;2545;50.892;5.740;2023-04-07T00:01:56;56170.91;;;-142.21;100.00
5053;BME280;2545;50.892;5.740;2023-04-07T00:04:21;56174.84;;;-142.21;100.00
5053;BME280;2545;50.892;5.740;2023-04-07T00:06:46;56206.22;;;-142.21;100.00
5053;BME280;2545;50.892;5.740;2023-04-07T00:09:12;56194.44;;;-142.21;100.00
5053;BME280;2545;50.892;5.740;2023-04-07T00:11:37;56167.00;;;-142.21;100.00
5053;BME280;2545;50.892;5.740;2023-04-07T00:14:03;56182.69;;;-142.21;100.00
5053;BME280;2545;50.892;5.740;2023-04-07T00:16:28;56163.06;;;-142.21;100.00
5053;BME280;2545;50.892;5.740;2023-04-07T00:18:53;56180.72;;;-142.21;100.00
5053;BME280;2545;50.892;5.740;2023-04-07T00:21:19;56180.72;;;-142.21;100.00
5053;BME280;2545;50.892;5.740;2023-04-07T00:23:44;56178.75;;;-142.21;100.00
5053;BME280;2545;50.892;5.740;2023-04-07T00:26:10;56143.47;;;-142.21;100.00
5053;BME280;2545;50.892;5.740;2023-04-07T00:28:36;56174.84;;;-142.21;100.00
5053;BME280;2545;50.892;5.740;2023-04-07T00:31:01;56174.84;;;-142.21;100.00
5053;BME280;2545;50.892;5.740;2023-04-07T00:33:27;56170.91;;;-142.21;100.00
5053;BME280;2545;50.892;5.740;2023-04-07T00:35:52;56196.41;;;-142.21;100.00
5053;BME280;2545;50.892;5.740;2023-04-07T00:38:18;56168.97;;;-142.21;100.00
5053;BME280;2545;50.892;5.740;2023-04-07T00:40:43;56168.97;;;-142.21;100.00
5053;BME280;2545;50.892;5.740;2023-04-07T00:43:09;56194.44;;;-142.21;100.00
5053;BME280;2545;50.892;5.740;2023-04-07T00:45:35;56155.22;;;-142.21;100.00
5053;BME280;2545;50.892;5.740;2023-04-07T00:48:00;56157.19;;;-142.21;100.00
5053;BME280;2545;50.892;5.740;2023-04-07T00:50:26;56159.16;;;-142.21;100.00
5053;BME280;2545;50.892;5.740;2023-04-07T00:52:52;56180.72;;;-142.21;100.00
5053;BME280;2545;50.892;5.740;2023-04-07T00:55:18;56163.06;;;-142.21;100.00
5053;BME280;2545;50.892;5.740;2023-04-07T00:57:44;56180.72;;;-142.21;100.00
5053;BME280;2545;50.892;5.740;2023-04-07T01:00:11;56192.50;;;-142.21;100.00
5053;BME280;2545;50.892;5.740;2023-04-07T01:07:57;56168.97;;;-142.21;100.00
5053;BME280;2545;50.892;5.740;2023-04-07T01:10:59;56133.66;;;-142.21;100.00
5053;BME280;2545;50.892;5.740;2023-04-07T01:13:51;56168.97;;;-142.21;100.00
5053;BME280;2545;50.892;5.740;2023-04-07T01:16:34;56192.50;;;-142.21;100.00
5053;BME280;2545;50.892;5.740;2023-04-07T01:19:13;56153.28;;;-142.21;100.00
5053;BME280;2545;50.892;5.740;2023-04-07T01:21:39;56190.53;;;-142.21;100.00
5053;BME280;2545;50.892;5.740;2023-04-07T01:27:06;56159.16;;;-142.21;100.00
5053;BME280;2545;50.892;5.740;2023-04-07T01:29:41;56176.78;;;-142.21;100.00
5053;BME280;2545;50.892;5.740;2023-04-07T01:32:13;56198.38;;;-142.21;100.00
5053;BME280;2545;50.892;5.740;2023-04-07T01:34:40;56178.75;;;-142.21;100.00
5053;BME280;2545;50.892;5.740;2023-04-07T01:37:06;56149.34;;;-142.21;100.00
5053;BME280;2545;50.892;5.740;2023-04-07T01:39:32;56180.72;;;-142.21;100.00
5053;BME280;2545;50.892;5.740;2023-04-07T01:41:59;56190.53;;;-142.21;100.00
5053;BME280;2545;50.892;5.740;2023-04-07T01:44:27;56170.91;;;-142.21;100.00
5053;BME280;2545;50.892;5.740;2023-04-07T01:46:53;56157.19;;;-142.21;100.00
5053;BME280;2545;50.892;5.740;2023-04-07T01:49:19;56170.91;;;-142.21;100.00
5053;BME280;2545;50.892;5.740;2023-04-07T01:51:46;56196.41;;;-142.21;100.00
5053;BME280;2545;50.892;5.740;2023-04-07T01:54:15;56194.44;;;-142.21;100.00
5053;BME280;2545;50.892;5.740;2023-04-07T01:56:42;56202.28;;;-142.21;100.00
5053;BME280;2545;50.892;5.740;2023-04-07T01:59:07;56149.34;;;-142.21;100.00
5053;BME280;2545;50.892;5.740;2023-04-07T02:01:33;56178.75;;;-142.21;100.00
5053;BME280;2545;50.892;5.740;2023-04-07T02:06:50;56190.53;;;-142.21;100.00
5053;BME280;2545;50.892;5.740;2023-04-07T02:09:19;56167.00;;;-142.21;100.00
5053;BME280;2545;50.892;5.740;2023-04-07T02:11:46;56186.59;;;-142.21;100.00
5053;BME280;2545;50.892;5.740;2023-04-07T02:14:13;56192.50;;;-142.21;100.00
5053;BME280;2545;50.892;5.740;2023-04-07T02:16:41;56170.91;;;-142.21;100.00
5053;BME280;2545;50.892;5.740;2023-04-07T02:19:07;56143.47;;;-142.21;100.00
5053;BME280;2545;50.892;5.740;2023-04-07T02:21:34;56155.22;;;-142.21;100.00
5053;BME280;2545;50.892;5.740;2023-04-07T02:24:06;56210.13;;;-142.21;100.00
5053;BME280;2545;50.892;5.740;2023-04-07T02:26:35;56168.97;;;-142.21;100.00
5053;BME280;2545;50.892;5.740;2023-04-07T02:29:04;56180.72;;;-142.21;100.00
5053;BME280;2545;50.892;5.740;2023-04-07T02:31:30;56168.97;;;-142.21;100.00
5053;BME280;2545;50.892;5.740;2023-04-07T02:33:55;56184.66;;;-142.21;100.00
5053;BME280;2545;50.892;5.740;2023-04-07T02:36:20;56208.16;;;-142.21;100.00
5053;BME280;2545;50.892;5.740;2023-04-07T02:38:46;56167.00;;;-142.21;100.00
5053;BME280;2545;50.892;5.740;2023-04-07T02:41:11;56178.75;;;-142.21;100.00
5053;BME280;2545;50.892;5.740;2023-04-07T02:43:36;56165.03;;;-142.21;100.00
5053;BME280;2545;50.892;5.740;2023-04-07T02:46:02;56198.38;;;-142.21;100.00
5053;BME280;2545;50.892;5.740;2023-04-07T02:48:27;56188.56;;;-142.21;100.00
5053;BME280;2545;50.892;5.740;2023-04-07T02:50:52;56192.50;;;-142.21;100.00
5053;BME280;2545;50.892;5.740;2023-04-07T02:53:17;56186.59;;;-142.21;100.00
5053;BME280;2545;50.892;5.740;2023-04-07T02:55:43;56214.06;;;-142.21;100.00
5053;BME280;2545;50.892;5.740;2023-04-07T02:58:08;56159.16;;;-142.21;100.00
5053;BME280;2545;50.892;5.740;2023-04-07T03:00:33;56178.75;;;-142.21;100.00
5053;BME280;2545;50.892;5.740;2023-04-07T03:02:59;56163.06;;;-142.21;100.00
5053;BME280;2545;50.892;5.740;2023-04-07T03:05:25;56184.66;;;-142.21;100.00
5053;BME280;2545;50.892;5.740;2023-04-07T03:07:50;56174.84;;;-142.21;100.00
5053;BME280;2545;50.892;5.740;2023-04-07T03:10:16;56174.84;;;-142.21;100.00
5053;BME280;2545;50.892;5.740;2023-04-07T03:12:42;56229.75;;;-142.21;100.00
5053;BME280;2545;50.892;5.740;2023-04-07T03:15:07;56178.75;;;-142.21;100.00
5053;BME280;2545;50.892;5.740;2023-04-07T03:17:33;56202.28;;;-142.21;100.00
5053;BME280;2545;50.892;5.740;2023-04-07T03:19:59;56206.22;;;-142.21;100.00
5053;BME280;2545;50.892;5.740;2023-04-07T03:22:24;56168.97;;;-142.21;100.00
5053;BME280;2545;50.892;5.740;2023-04-07T03:24:49;56159.16;;;-142.21;100.00
5053;BME280;2545;50.892;5.740;2023-04-07T03:27:15;56170.91;;;-142.21;100.00
5053;BME280;2545;50.892;5.740;2023-04-07T03:29:41;56180.72;;;-142.21;100.00
5053;BME280;2545;50.892;5.740;2023-04-07T03:32:06;56200.34;;;-142.21;100.00
5053;BME280;2545;50.892;5.740;2023-04-07T03:34:32;56184.66;;;-142.21;100.00
5053;BME280;2545;50.892;5.740;2023-04-07T03:36:57;56192.50;;;-142.21;100.00
5053;BME280;2545;50.892;5.740;2023-04-07T03:39:22;56167.00;;;-142.21;100.00
5053;BME280;2545;50.892;5.740;2023-04-07T03:41:48;56184.66;;;-142.21;100.00
5053;BME280;2545;50.892;5.740;2023-04-07T03:44:13;56200.34;;;-142.21;100.00
5053;BME280;2545;50.892;5.740;2023-04-07T03:46:38;56180.72;;;-142.21;100.00
5053;BME280;2545;50.892;5.740;2023-04-07T03:49:04;56163.06;;;-142.21;100.00
5053;BME280;2545;50.892;5.740;2023-04-07T03:51:29;56182.69;;;-142.21;100.00
5053;BME280;2545;50.892;5.740;2023-04-07T03:53:54;56182.69;;;-142.21;100.00
5053;BME280;2545;50.892;5.740;2023-04-07T03:56:20;56196.41;;;-142.21;100.00
5053;BME280;2545;50.892;5.740;2023-04-07T03:58:45;56198.38;;;-142.21;100.00
5053;BME280;2545;50.892;5.740;2023-04-07T04:01:10;56202.28;;;-142.21;100.00
5053;BME280;2545;50.892;5.740;2023-04-07T04:03:36;56170.91;;;-142.21;100.00
5053;BME280;2545;50.892;5.740;2023-04-07T04:06:01;56184.66;;;-142.21;100.00
5053;BME280;2545;50.892;5.740;2023-04-07T04:08:27;56206.22;;;-142.21;100.00
5053;BME280;2545;50.892;5.740;2023-04-07T04:10:53;56214.06;;;-142.21;100.00
5053;BME280;2545;50.892;5.740;2023-04-07T04:13:18;56159.16;;;-142.21;100.00
5053;BME280;2545;50.892;5.740;2023-04-07T04:15:44;56170.91;;;-142.21;100.00
5053;BME280;2545;50.892;5.740;2023-04-07T04:18:09;56210.13;;;-142.21;100.00
5053;BME280;2545;50.892;5.740;2023-04-07T04:20:34;56196.41;;;-142.21;100.00
5053;BME280;2545;50.892;5.740;2023-04-07T04:23:01;56194.44;;;-142.21;100.00
5053;BME280;2545;50.892;5.740;2023-04-07T04:25:26;56210.13;;;-142.21;100.00
5053;BME280;2545;50.892;5.740;2023-04-07T04:27:52;56192.50;;;-142.21;100.00
5053;BME280;2545;50.892;5.740;2023-04-07T04:30:17;56214.06;;;-142.21;100.00
5053;BME280;2545;50.892;5.740;2023-04-07T04:32:42;56210.13;;;-142.21;100.00
5053;BME280;2545;50.892;5.740;2023-04-07T04:35:08;56178.75;;;-142.21;100.00
5053;BME280;2545;50.892;5.740;2023-04-07T04:37:34;56192.50;;;-142.21;100.00
5053;BME280;2545;50.892;5.740;2023-04-07T04:39:59;56165.03;;;-142.21;100.00
5053;BME280;2545;50.892;5.740;2023-04-07T04:42:25;56233.66;;;-142.21;100.00
5053;BME280;2545;50.892;5.740;2023-04-07T04:44:52;56168.97;;;-142.21;100.00
5053;BME280;2545;50.892;5.740;2023-04-07T04:47:17;56155.22;;;-142.21;100.00
5053;BME280;2545;50.892;5.740;2023-04-07T04:49:42;56216.00;;;-142.21;100.00
5053;BME280;2545;50.892;5.740;2023-04-07T04:52:08;56190.53;;;-142.21;100.00
5053;BME280;2545;50.892;5.740;2023-04-07T04:54:33;56202.28;;;-142.21;100.00
5053;BME280;2545;50.892;5.740;2023-04-07T04:56:58;56204.25;;;-142.21;100.00
5053;BME280;2545;50.892;5.740;2023-04-07T04:59:25;56208.16;;;-142.21;100.00
5053;BME280;2545;50.892;5.740;2023-04-07T05:01:51;56167.00;;;-142.21;100.00
5053;BME280;2545;50.892;5.740;2023-04-07T05:04:16;56184.66;;;-142.21;100.00
5053;BME280;2545;50.892;5.740;2023-04-07T05:06:43;56186.59;;;-142.21;100.00
5053;BME280;2545;50.892;5.740;2023-04-07T05:09:08;56161.13;;;-142.21;100.00
5053;BME280;2545;50.892;5.740;2023-04-07T05:11:33;56159.16;;;-142.21;100.00
5053;BME280;2545;50.892;5.740;2023-04-07T05:13:59;56186.59;;;-142.21;100.00
5053;BME280;2545;50.892;5.740;2023-04-07T05:16:24;56210.13;;;-142.21;100.00
5053;BME280;2545;50.892;5.740;2023-04-07T05:18:49;56176.78;;;-142.21;100.00
5053;BME280;2545;50.892;5.740;2023-04-07T05:21:15;56198.38;;;-142.21;100.00
5053;BME280;2545;50.892;5.740;2023-04-07T05:23:40;56206.22;;;-142.21;100.00
5053;BME280;2545;50.892;5.740;2023-04-07T05:26:06;56163.06;;;-142.21;100.00
5053;BME280;2545;50.892;5.740;2023-04-07T05:28:31;56196.41;;;-142.21;100.00
5053;BME280;2545;50.892;5.740;2023-04-07T05:30:56;56210.13;;;-142.21;100.00
5053;BME280;2545;50.892;5.740;2023-04-07T05:33:21;56186.59;;;-142.21;100.00
5053;BME280;2545;50.892;5.740;2023-04-07T05:35:47;56168.97;;;-142.21;100.00
5053;BME280;2545;50.892;5.740;2023-04-07T05:38:12;56170.91;;;-142.21;100.00
5053;BME280;2545;50.892;5.740;2023-04-07T05:40:39;56186.59;;;-142.21;100.00
5053;BME280;2545;50.892;5.740;2023-04-07T05:43:05;56155.22;;;-142.21;100.00
5053;BME280;2545;50.892;5.740;2023-04-07T05:45:30;56229.75;;;-142.21;100.00
5053;BME280;2545;50.892;5.740;2023-04-07T05:47:56;56167.00;;;-142.21;100.00
5053;BME280;2545;50.892;5.740;2023-04-07T05:50:21;56188.56;;;-142.21;100.00
5053;BME280;2545;50.892;5.740;2023-04-07T05:52:46;56174.84;;;-142.21;100.00
5053;BME280;2545;50.892;5.740;2023-04-07T05:55:12;56184.66;;;-142.21;100.00
5053;BME280;2545;50.892;5.740;2023-04-07T05:57:37;56227.78;;;-142.21;100.00
5053;BME280;2545;50.892;5.740;2023-04-07T06:00:03;56212.09;;;-142.21;100.00
5053;BME280;2545;50.892;5.740;2023-04-07T06:02:29;56180.72;;;-142.21;100.00
5053;BME280;2545;50.892;5.740;2023-04-07T06:04:54;56212.09;;;-142.21;100.00
5053;BME280;2545;50.892;5.740;2023-04-07T06:07:20;56231.72;;;-142.21;100.00
5053;BME280;2545;50.892;5.740;2023-04-07T06:09:45;56196.41;;;-142.21;100.00
5053;BME280;2545;50.892;5.740;2023-04-07T06:12:11;56188.56;;;-142.21;100.00
5053;BME280;2545;50.892;5.740;2023-04-07T06:14:37;56216.00;;;-142.21;100.00
5053;BME280;2545;50.892;5.740;2023-04-07T06:17:02;56192.50;;;-142.21;100.00
5053;BME280;2545;50.892;5.740;2023-04-07T06:19:28;56229.75;;;-142.21;100.00
5053;BME280;2545;50.892;5.740;2023-04-07T06:21:53;56206.22;;;-142.21;100.00
5053;BME280;2545;50.892;5.740;2023-04-07T06:24:19;56202.28;;;-142.21;100.00
5053;BME280;2545;50.892;5.740;2023-04-07T06:26:47;56167.00;;;-142.21;100.00
5053;BME280;2545;50.892;5.740;2023-04-07T06:29:13;56196.41;;;-142.21;100.00
5053;BME280;2545;50.892;5.740;2023-04-07T06:31:39;56208.16;;;-142.21;100.00
5053;BME280;2545;50.892;5.740;2023-04-07T06:34:04;56174.84;;;-142.21;100.00
5053;BME280;2545;50.892;5.740;2023-04-07T06:36:30;56184.66;;;-142.21;100.00
5053;BME280;2545;50.892;5.740;2023-04-07T06:38:55;56176.78;;;-142.21;100.00
5053;BME280;2545;50.892;5.740;2023-04-07T06:41:21;56206.22;;;-142.21;100.00
5053;BME280;2545;50.892;5.740;2023-04-07T06:43:48;56186.59;;;-142.21;100.00
5053;BME280;2545;50.892;5.740;2023-04-07T06:46:15;56188.56;;;-142.21;100.00
5053;BME280;2545;50.892;5.740;2023-04-07T06:48:40;56212.09;;;-142.21;100.00
5053;BME280;2545;50.892;5.740;2023-04-07T06:51:05;56194.44;;;-142.21;100.00
5053;BME280;2545;50.892;5.740;2023-04-07T06:53:31;56190.53;;;-142.21;100.00
5053;BME280;2545;50.892;5.740;2023-04-07T06:56:07;56167.00;;;-142.21;100.00
5053;BME280;2545;50.892;5.740;2023-04-07T06:58:33;56200.34;;;-142.21;100.00
5053;BME280;2545;50.892;5.740;2023-04-07T07:00:59;56168.97;;;-142.21;100.00
5053;BME280;2545;50.892;5.740;2023-04-07T07:03:24;56182.69;;;-142.21;100.00
5053;BME280;2545;50.892;5.740;2023-04-07T07:05:53;56188.56;;;-142.21;100.00
5053;BME280;2545;50.892;5.740;2023-04-07T07:08:18;56208.16;;;-142.21;100.00
5053;BME280;2545;50.892;5.740;2023-04-07T07:10:43;56159.16;;;-142.21;100.00
5053;BME280;2545;50.892;5.740;2023-04-07T07:13:09;56214.06;;;-142.21;100.00
5053;BME280;2545;50.892;5.740;2023-04-07T07:15:34;56182.69;;;-142.21;100.00
5053;BME280;2545;50.892;5.740;2023-04-07T07:17:59;56174.84;;;-142.21;100.00
5053;BME280;2545;50.892;5.740;2023-04-07T07:20:25;56212.09;;;-142.21;100.00
5053;BME280;2545;50.892;5.740;2023-04-07T07:22:50;56155.22;;;-142.21;100.00
5053;BME280;2545;50.892;5.740;2023-04-07T07:25:15;56196.41;;;-142.21;100.00
5053;BME280;2545;50.892;5.740;2023-04-07T07:27:41;56174.84;;;-142.21;100.00
5053;BME280;2545;50.892;5.740;2023-04-07T07:30:06;56139.53;;;-142.21;100.00
5053;BME280;2545;50.892;5.740;2023-04-07T07:32:32;56165.03;;;-142.21;100.00
5053;BME280;2545;50.892;5.740;2023-04-07T07:34:57;56176.78;;;-142.21;100.00
5053;BME280;2545;50.892;5.740;2023-04-07T07:37:23;56178.75;;;-142.21;100.00
5053;BME280;2545;50.892;5.740;2023-04-07T07:39:48;56194.44;;;-142.21;100.00
5053;BME280;2545;50.892;5.740;2023-04-07T07:42:14;56155.22;;;-142.21;100.00
5053;BME280;2545;50.892;5.740;2023-04-07T07:44:39;56182.69;;;-142.21;100.00
5053;BME280;2545;50.892;5.740;2023-04-07T07:47:04;56167.00;;;-142.21;100.00
5053;BME280;2545;50.892;5.740;2023-04-07T07:49:30;56186.59;;;-142.21;100.00
5053;BME280;2545;50.892;5.740;2023-04-07T07:51:55;56188.56;;;-142.21;100.00
5053;BME280;2545;50.892;5.740;2023-04-07T07:54:21;56168.97;;;-142.21;100.00
5053;BME280;2545;50.892;5.740;2023-04-07T07:56:46;56198.38;;;-142.21;100.00
5053;BME280;2545;50.892;5.740;2023-04-07T07:59:12;56170.91;;;-142.21;100.00
5053;BME280;2545;50.892;5.740;2023-04-07T08:01:37;56192.50;;;-142.21;100.00
5053;BME280;2545;50.892;5.740;2023-04-07T08:04:02;56170.91;;;-142.21;100.00
5053;BME280;2545;50.892;5.740;2023-04-07T08:06:28;56153.28;;;-142.21;100.00
5053;BME280;2545;50.892;5.740;2023-04-07T08:08:55;56202.28;;;-142.21;100.00
5053;BME280;2545;50.892;5.740;2023-04-07T08:11:21;56165.03;;;-142.21;100.00
5053;BME280;2545;50.892;5.740;2023-04-07T08:13:47;56198.38;;;-142.21;100.00
5053;BME280;2545;50.892;5.740;2023-04-07T08:16:12;56190.53;;;-142.21;100.00
5053;BME280;2545;50.892;5.740;2023-04-07T08:18:37;56184.66;;;-142.21;100.00
5053;BME280;2545;50.892;5.740;2023-04-07T08:21:04;56163.06;;;-142.21;100.00
5053;BME280;2545;50.892;5.740;2023-04-07T08:23:30;56178.75;;;-142.21;100.00
5053;BME280;2545;50.892;5.740;2023-04-07T08:25:55;56180.72;;;-142.21;100.00
5053;BME280;2545;50.892;5.740;2023-04-07T08:28:21;56174.84;;;-142.21;100.00
5053;BME280;2545;50.892;5.740;2023-04-07T08:30:47;56159.16;;;-142.21;100.00
5053;BME280;2545;50.892;5.740;2023-04-07T08:33:12;56161.13;;;-142.21;100.00
5053;BME280;2545;50.892;5.740;2023-04-07T08:35:37;56182.69;;;-142.21;100.00
5053;BME280;2545;50.892;5.740;2023-04-07T08:38:03;56163.06;;;-142.21;100.00
5053;BME280;2545;50.892;5.740;2023-04-07T08:40:29;56167.00;;;-142.21;100.00
5053;BME280;2545;50.892;5.740;2023-04-07T08:42:56;56186.59;;;-142.21;100.00
5053;BME280;2545;50.892;5.740;2023-04-07T08:45:24;56165.03;;;-142.21;100.00
5053;BME280;2545;50.892;5.740;2023-04-07T08:47:53;56190.53;;;-142.21;100.00
5053;BME280;2545;50.892;5.740;2023-04-07T08:50:21;56190.53;;;-142.21;100.00
5053;BME280;2545;50.892;5.740;2023-04-07T08:52:53;56186.59;;;-142.21;100.00
5053;BME280;2545;50.892;5.740;2023-04-07T08:55:19;56190.53;;;-142.21;100.00
5053;BME280;2545;50.892;5.740;2023-04-07T08:57:45;56172.88;;;-142.21;100.00
5053;BME280;2545;50.892;5.740;2023-04-07T09:00:12;56188.56;;;-142.21;100.00
5053;BME280;2545;50.892;5.740;2023-04-07T09:02:39;56237.59;;;-142.21;100.00
5053;BME280;2545;50.892;5.740;2023-04-07T09:05:07;56200.34;;;-142.21;100.00
5053;BME280;2545;50.892;5.740;2023-04-07T09:07:36;56159.16;;;-142.21;100.00
5053;BME280;2545;50.892;5.740;2023-04-07T09:10:03;56135.63;;;-142.21;100.00
5053;BME280;2545;50.892;5.740;2023-04-07T09:12:29;56155.22;;;-142.21;100.00
5053;BME280;2545;50.892;5.740;2023-04-07T09:14:55;56174.84;;;-142.21;100.00
5053;BME280;2545;50.892;5.740;2023-04-07T09:17:21;56194.44;;;-142.21;100.00
5053;BME280;2545;50.892;5.740;2023-04-07T09:19:47;56184.66;;;-142.21;100.00
5053;BME280;2545;50.892;5.740;2023-04-07T09:22:13;56200.34;;;-142.21;100.00
5053;BME280;2545;50.892;5.740;2023-04-07T09:24:40;56192.50;;;-142.21;100.00
5053;BME280;2545;50.892;5.740;2023-04-07T09:29:35;56155.22;;;-142.21;100.00
5053;BME280;2545;50.892;5.740;2023-04-07T09:32:01;56208.16;;;-142.21;97.46
5053;BME280;2545;50.892;5.740;2023-04-07T09:34:32;56174.84;;;-142.21;93.72
5053;BME280;2545;50.892;5.740;2023-04-07T09:36:58;56167.00;;;-142.21;95.12
5053;BME280;2545;50.892;5.740;2023-04-07T09:39:24;56182.69;;;-142.21;95.23
5053;BME280;2545;50.892;5.740;2023-04-07T09:41:50;56170.91;;;-142.21;95.25
5053;BME280;2545;50.892;5.740;2023-04-07T09:44:17;56174.84;;;-142.21;95.32
5053;BME280;2545;50.892;5.740;2023-04-07T09:46:55;56155.22;;;-142.21;95.33
5053;BME280;2545;50.892;5.740;2023-04-07T09:49:25;56182.69;;;-142.21;92.05
5053;BME280;2545;50.892;5.740;2023-04-07T09:52:01;56180.72;;;-142.21;86.20
5053;BME280;2545;50.892;5.740;2023-04-07T09:54:39;56147.38;;;-142.21;84.05
5053;BME280;2545;50.892;5.740;2023-04-07T09:57:09;56112.09;;;-142.21;82.37
5053;BME280;2545;50.892;5.740;2023-04-07T09:59:37;56174.84;;;-142.21;81.56
5053;BME280;2545;50.892;5.740;2023-04-07T10:02:03;56139.53;;;-142.21;81.43
5053;BME280;2545;50.892;5.740;2023-04-07T10:04:29;56147.38;;;-142.21;80.25
5053;BME280;2545;50.892;5.740;2023-04-07T10:06:56;56165.03;;;-142.21;82.91
5053;BME280;2545;50.892;5.740;2023-04-07T10:09:22;56151.31;;;-142.21;82.58
5053;BME280;2545;50.892;5.740;2023-04-07T10:11:52;56147.38;;;-142.21;82.91
5053;BME280;2545;50.892;5.740;2023-04-07T10:14:20;56161.13;;;-142.21;85.42
5053;BME280;2545;50.892;5.740;2023-04-07T10:16:46;56196.41;;;-142.21;84.44
5053;BME280;2545;50.892;5.740;2023-04-07T10:19:13;56168.97;;;-142.21;85.95
5053;BME280;2545;50.892;5.740;2023-04-07T10:21:40;56153.28;;;-142.21;87.87
5053;BME280;2545;50.892;5.740;2023-04-07T10:26:58;56127.78;;;-142.21;88.71
5053;BME280;2545;50.892;5.740;2023-04-07T10:29:28;56172.88;;;-142.21;88.23
5053;BME280;2545;50.892;5.740;2023-04-07T10:31:58;56131.69;;;-142.21;88.52
5053;BME280;2545;50.892;5.740;2023-04-07T10:34:56;56147.38;;;-142.21;88.37
5053;BME280;2545;50.892;5.740;2023-04-07T10:37:23;56139.53;;;-142.21;87.48
5053;BME280;2545;50.892;5.740;2023-04-07T10:39:50;56163.06;;;-142.21;88.27
5053;BME280;2545;50.892;5.740;2023-04-07T10:45:04;56165.03;;;-142.21;84.30
5053;BME280;2545;50.892;5.740;2023-04-07T10:47:29;56151.31;;;-142.21;84.12
5053;BME280;2545;50.892;5.740;2023-04-07T10:50:20;56172.88;;;-142.21;82.72
5053;BME280;2545;50.892;5.740;2023-04-07T10:52:47;56172.88;;;-142.21;79.70
5053;BME280;2545;50.892;5.740;2023-04-07T10:55:39;56170.91;;;-142.21;79.29
5053;BME280;2545;50.892;5.740;2023-04-07T11:03:22;56206.22;;;-142.21;80.87
5053;BME280;2545;50.892;5.740;2023-04-07T11:05:47;56168.97;;;-142.21;81.58
5053;BME280;2545;50.892;5.740;2023-04-07T11:08:13;56131.69;;;-142.21;81.69
5053;BME280;2545;50.892;5.740;2023-04-07T11:10:38;56180.72;;;-142.21;83.27
5053;BME280;2545;50.892;5.740;2023-04-07T11:13:07;56172.88;;;-142.21;83.37
5053;BME280;2545;50.892;5.740;2023-04-07T11:15:34;56168.97;;;-142.21;82.87
5053;BME280;2545;50.892;5.740;2023-04-07T11:18:20;56200.34;;;-142.21;80.60
5053;BME280;2545;50.892;5.740;2023-04-07T11:20:53;56159.16;;;-142.21;80.75
5053;BME280;2545;50.892;5.740;2023-04-07T11:23:21;56178.75;;;-142.21;79.59
5053;BME280;2545;50.892;5.740;2023-04-07T11:25:48;56186.59;;;-142.21;78.74
5053;BME280;2545;50.892;5.740;2023-04-07T11:28:14;56178.75;;;-142.21;79.09
5053;BME280;2545;50.892;5.740;2023-04-07T11:30:48;56157.19;;;-142.21;78.29
5053;BME280;2545;50.892;5.740;2023-04-07T11:33:18;56133.66;;;-142.21;76.95
5053;BME280;2545;50.892;5.740;2023-04-07T11:35:51;56117.97;;;-142.21;74.18
5053;BME280;2545;50.892;5.740;2023-04-07T11:38:17;56168.97;;;-142.21;73.08
5053;BME280;2545;50.892;5.740;2023-04-07T11:40:42;56137.59;;;-142.21;73.95
5053;BME280;2545;50.892;5.740;2023-04-07T11:43:18;56184.66;;;-142.21;74.96
5053;BME280;2545;50.892;5.740;2023-04-07T11:45:44;56155.22;;;-142.21;76.14
5053;BME280;2545;50.892;5.740;2023-04-07T11:48:25;56151.31;;;-142.21;76.44
5053;BME280;2545;50.892;5.740;2023-04-07T11:50:51;56135.63;;;-142.21;76.86
5053;BME280;2545;50.892;5.740;2023-04-07T11:53:27;56141.50;;;-142.21;76.53
5053;BME280;2545;50.892;5.740;2023-04-07T11:56:04;56163.06;;;-142.21;77.86
5053;BME280;2545;50.892;5.740;2023-04-07T11:58:30;56176.78;;;-142.21;78.74
5053;BME280;2545;50.892;5.740;2023-04-07T12:00:57;56153.28;;;-142.21;77.58
5053;BME280;2545;50.892;5.740;2023-04-07T12:03:23;56143.47;;;-142.21;77.24
5053;BME280;2545;50.892;5.740;2023-04-07T12:05:48;56131.69;;;-142.21;76.19
5053;BME280;2545;50.892;5.740;2023-04-07T12:08:14;56157.19;;;-142.21;76.14
5053;BME280;2545;50.892;5.740;2023-04-07T12:10:42;56163.06;;;-142.21;76.45
5053;BME280;2545;50.892;5.740;2023-04-07T12:13:08;56159.16;;;-142.21;76.07
5053;BME280;2545;50.892;5.740;2023-04-07T12:15:34;56141.50;;;-142.21;74.41
5053;BME280;2545;50.892;5.740;2023-04-07T12:18:01;56163.06;;;-142.21;73.69
5053;BME280;2545;50.892;5.740;2023-04-07T12:20:27;56180.72;;;-142.21;74.41
5053;BME280;2545;50.892;5.740;2023-04-07T12:22:53;56182.69;;;-142.21;75.78
5053;BME280;2545;50.892;5.740;2023-04-07T12:25:18;56170.91;;;-142.21;74.34
5053;BME280;2545;50.892;5.740;2023-04-07T12:27:43;56123.84;;;-142.21;74.20
5053;BME280;2545;50.892;5.740;2023-04-07T12:30:09;56165.03;;;-142.21;74.29
5053;BME280;2545;50.892;5.740;2023-04-07T12:32:35;56184.66;;;-142.21;72.96
5053;BME280;2545;50.892;5.740;2023-04-07T12:35:01;56196.41;;;-142.21;73.13
5053;BME280;2545;50.892;5.740;2023-04-07T12:37:27;56139.53;;;-142.21;71.87
5053;BME280;2545;50.892;5.740;2023-04-07T12:39:52;56176.78;;;-142.21;72.47
5053;BME280;2545;50.892;5.740;2023-04-07T12:42:17;56170.91;;;-142.21;71.24
5053;BME280;2545;50.892;5.740;2023-04-07T12:44:43;56200.34;;;-142.21;72.50
5053;BME280;2545;50.892;5.740;2023-04-07T12:47:08;56157.19;;;-142.21;73.17
5053;BME280;2545;50.892;5.740;2023-04-07T12:49:33;56172.88;;;-142.21;74.53
5053;BME280;2545;50.892;5.740;2023-04-07T12:51:59;56194.44;;;-142.21;73.83
5053;BME280;2545;50.892;5.740;2023-04-07T12:54:24;56116.00;;;-142.21;73.10
5053;BME280;2545;50.892;5.740;2023-04-07T12:56:49;56151.31;;;-142.21;71.83
5053;BME280;2545;50.892;5.740;2023-04-07T12:59:15;56208.16;;;-142.21;72.15
5053;BME280;2545;50.892;5.740;2023-04-07T13:01:41;56176.78;;;-142.21;72.62
5053;BME280;2545;50.892;5.740;2023-04-07T13:04:07;56165.03;;;-142.21;73.83
5053;BME280;2545;50.892;5.740;2023-04-07T13:06:33;56170.91;;;-142.21;74.51
5053;BME280;2545;50.892;5.740;2023-04-07T13:08:58;56200.34;;;-142.21;76.19
5053;BME280;2545;50.892;5.740;2023-04-07T13:11:23;56141.50;;;-142.21;77.22
5053;BME280;2545;50.892;5.740;2023-04-07T13:13:49;56135.63;;;-142.21;77.51
5053;BME280;2545;50.892;5.740;2023-04-07T13:16:15;56151.31;;;-142.21;80.22